createdAt,value
2019-04-27T00:01:05.135Z,80.35
2019-04-27T00:01:45.387Z,80.35
2019-04-27T00:02:43.466Z,80.83
2019-04-27T00:03:43.259Z,80.16
2019-04-27T00:04:42.944Z,80.35
2019-04-27T00:05:43.311Z,80.83
2019-04-27T00:07:02.969Z,80.83
2019-04-27T00:07:41.498Z,80.54
2019-04-27T00:08:43.033Z,80.83
2019-04-27T00:09:50.060Z,80.73
2019-04-27T00:10:41.391Z,80.92
2019-04-27T00:11:42.188Z,80.64
2019-04-27T00:13:05.715Z,80.83
2019-04-27T00:13:42.195Z,80.83
2019-04-27T00:14:41.266Z,80.64
2019-04-27T00:15:41.243Z,80.83
2019-04-27T00:16:46.888Z,80.83
2019-04-27T00:17:47.265Z,80.83
2019-04-27T00:19:03.770Z,80.44
2019-04-27T00:19:41.095Z,81.12
2019-04-27T00:20:41.073Z,81.02
2019-04-27T00:21:41.021Z,80.73
2019-04-27T00:22:40.991Z,80.83
2019-04-27T00:23:40.962Z,80.92
2019-04-27T00:25:03.532Z,80.83
2019-04-27T00:25:40.892Z,80.83
2019-04-27T00:26:40.867Z,80.83
2019-04-27T00:27:40.834Z,80.83
2019-04-27T00:28:40.792Z,80.92
2019-04-27T00:29:40.761Z,80.92
2019-04-27T00:31:03.330Z,81.02
2019-04-27T00:31:40.692Z,80.92
2019-04-27T00:32:40.657Z,80.83
2019-04-27T00:33:40.630Z,80.83
2019-04-27T00:34:40.596Z,80.83
2019-04-27T00:35:40.557Z,80.83
2019-04-27T00:37:03.590Z,80.79
2019-04-27T00:37:40.490Z,81.07
2019-04-27T00:38:40.467Z,81.07
2019-04-27T00:39:40.419Z,80.88
2019-04-27T00:40:40.397Z,81.07
2019-04-27T00:41:40.360Z,80.69
2019-04-27T00:43:02.953Z,80.79
2019-04-27T00:43:40.304Z,81.07
2019-04-27T00:44:40.248Z,80.88
2019-04-27T00:45:40.218Z,80.92
2019-04-27T00:46:40.186Z,80.88
2019-04-27T00:47:40.151Z,80.98
2019-04-27T00:49:01.128Z,81.07
2019-04-27T00:49:40.101Z,80.88
2019-04-27T00:50:40.066Z,80.98
2019-04-27T00:51:40.025Z,80.88
2019-04-27T00:52:39.989Z,80.98
2019-04-27T00:53:39.960Z,80.88
2019-04-27T00:55:00.907Z,81.17
2019-04-27T00:55:39.886Z,80.98
2019-04-27T00:56:39.854Z,80.98
2019-04-27T00:57:39.819Z,80.79
2019-04-27T00:58:39.787Z,80.88
2019-04-27T00:59:39.746Z,80.79
2019-04-27T01:01:00.721Z,80.69
2019-04-27T01:01:39.691Z,80.79
2019-04-27T01:02:39.657Z,80.60
2019-04-27T01:03:39.620Z,80.31
2019-04-27T01:04:39.575Z,79.83
2019-04-27T01:05:39.552Z,79.93
2019-04-27T01:07:00.513Z,79.46
2019-04-27T01:07:39.483Z,79.55
2019-04-27T01:08:39.446Z,79.17
2019-04-27T01:09:39.412Z,79.46
2019-04-27T01:10:39.391Z,79.17
2019-04-27T01:11:39.342Z,79.07
2019-04-27T01:13:00.308Z,78.46
2019-04-27T01:13:39.285Z,78.78
2019-04-27T01:14:39.244Z,78.78
2019-04-27T01:15:39.208Z,79.17
2019-04-27T01:16:39.248Z,78.75
2019-04-27T01:17:39.152Z,78.17
2019-04-27T01:19:00.143Z,77.93
2019-04-27T01:19:39.307Z,78.37
2019-04-27T01:20:39.043Z,77.93
2019-04-27T01:21:39.670Z,78.56
2019-04-27T01:22:39.247Z,78.37
2019-04-27T01:23:38.939Z,78.12
2019-04-27T01:24:59.898Z,78.12
2019-04-27T01:25:38.877Z,78.17
2019-04-27T01:26:38.838Z,78.12
2019-04-27T01:27:39.375Z,78.17
2019-04-27T01:28:38.912Z,78.17
2019-04-27T01:29:39.250Z,77.55
2019-04-27T01:31:00.648Z,77.70
2019-04-27T01:31:39.666Z,77.42
2019-04-27T01:32:39.211Z,77.42
2019-04-27T01:33:38.975Z,77.13
2019-04-27T01:34:39.641Z,76.46
2019-04-27T01:35:39.169Z,76.75
2019-04-27T01:36:59.612Z,76.65
2019-04-27T01:37:38.777Z,75.70
2019-04-27T01:38:39.258Z,76.08
2019-04-27T01:39:38.763Z,76.18
2019-04-27T01:40:38.702Z,76.18
2019-04-27T01:41:39.087Z,76.08
2019-04-27T01:42:59.298Z,75.70
2019-04-27T01:43:38.772Z,76.27
2019-04-27T01:44:39.368Z,76.27
2019-04-27T01:45:39.152Z,76.08
2019-04-27T01:46:39.620Z,76.27
2019-04-27T01:47:39.173Z,76.08
2019-04-27T01:48:59.219Z,75.89
2019-04-27T01:49:39.725Z,76.18
2019-04-27T01:50:39.197Z,76.12
2019-04-27T01:51:39.118Z,76.31
2019-04-27T01:52:38.516Z,76.40
2019-04-27T01:53:39.020Z,76.21
2019-04-27T01:54:59.489Z,76.21
2019-04-27T01:55:40.491Z,76.40
2019-04-27T01:56:39.343Z,76.40
2019-04-27T01:57:38.618Z,76.21
2019-04-27T01:58:39.268Z,76.31
2019-04-27T01:59:38.675Z,76.12
2019-04-27T02:00:59.450Z,75.93
2019-04-27T02:01:38.985Z,76.31
2019-04-27T02:02:39.251Z,76.40
2019-04-27T02:03:38.684Z,76.31
2019-04-27T02:04:37.557Z,76.31
2019-04-27T02:05:39.048Z,76.31
2019-04-27T02:06:59.004Z,76.40
2019-04-27T02:07:38.922Z,76.40
2019-04-27T02:08:37.408Z,76.31
2019-04-27T02:09:38.682Z,76.31
2019-04-27T02:10:37.351Z,76.40
2019-04-27T02:11:38.884Z,76.31
2019-04-27T02:12:58.690Z,76.31
2019-04-27T02:13:38.466Z,76.21
2019-04-27T02:14:38.966Z,76.21
2019-04-27T02:15:37.177Z,76.21
2019-04-27T02:16:39.031Z,75.93
2019-04-27T02:17:38.647Z,76.21
2019-04-27T02:18:58.577Z,76.21
2019-04-27T02:19:37.031Z,76.40
2019-04-27T02:20:38.685Z,75.60
2019-04-27T02:21:36.960Z,76.12
2019-04-27T02:22:38.377Z,76.40
2019-04-27T02:23:36.903Z,76.21
2019-04-27T02:24:59.099Z,76.40
2019-04-27T02:25:36.834Z,76.21
2019-04-27T02:26:36.795Z,76.12
2019-04-27T02:27:36.765Z,76.31
2019-04-27T02:28:36.725Z,76.27
2019-04-27T02:29:36.693Z,76.12
2019-04-27T02:30:57.660Z,76.27
2019-04-27T02:31:36.627Z,76.12
2019-04-27T02:32:36.582Z,76.21
2019-04-27T02:33:36.559Z,76.40
2019-04-27T02:34:36.524Z,75.93
2019-04-27T02:35:36.489Z,76.03
2019-04-27T02:36:59.478Z,75.55
2019-04-27T02:37:36.426Z,75.45
2019-04-27T02:38:36.389Z,75.84
2019-04-27T02:39:36.361Z,75.13
2019-04-27T02:40:36.324Z,74.84
2019-04-27T02:41:36.290Z,74.75
2019-04-27T02:42:57.237Z,74.84
2019-04-27T02:43:36.224Z,74.94
2019-04-27T02:44:36.182Z,74.65
2019-04-27T02:45:36.148Z,74.65
2019-04-27T02:46:36.117Z,74.37
2019-04-27T02:47:36.081Z,74.37
2019-04-27T02:49:03.525Z,74.37
2019-04-27T02:49:36.012Z,74.75
2019-04-27T02:50:35.983Z,74.27
2019-04-27T02:51:35.941Z,74.27
2019-04-27T02:52:35.917Z,74.46
2019-04-27T02:53:35.888Z,73.70
2019-04-27T02:54:59.115Z,74.18
2019-04-27T02:55:35.811Z,74.46
2019-04-27T02:56:35.773Z,74.46
2019-04-27T02:57:35.746Z,73.89
2019-04-27T02:58:35.714Z,74.46
2019-04-27T02:59:35.669Z,73.70
2019-04-27T03:00:56.636Z,73.80
2019-04-27T03:01:35.604Z,73.41
2019-04-27T03:02:35.570Z,73.70
2019-04-27T03:03:35.535Z,73.61
2019-04-27T03:04:35.499Z,73.99
2019-04-27T03:05:35.469Z,73.70
2019-04-27T03:06:56.453Z,74.37
2019-04-27T03:07:44.559Z,73.70
2019-04-27T03:09:39.819Z,73.80
2019-04-27T03:10:40.206Z,73.85
2019-04-27T03:11:39.822Z,73.80
2019-04-27T03:12:42.451Z,73.51
2019-04-27T03:13:40.493Z,73.41
2019-04-27T03:14:40.437Z,73.80
2019-04-27T03:15:40.351Z,73.80
2019-04-27T03:16:39.683Z,73.70
2019-04-27T03:17:39.758Z,73.32
2019-04-27T03:18:40.316Z,73.41
2019-04-27T03:19:40.114Z,73.22
2019-04-27T03:20:40.265Z,73.51
2019-04-27T03:21:39.625Z,73.32
2019-04-27T03:22:39.902Z,73.51
2019-04-27T03:23:41.235Z,73.32
2019-04-27T03:24:39.505Z,73.32
2019-04-27T03:25:40.042Z,73.51
2019-04-27T03:26:41.731Z,73.13
2019-04-27T03:27:40.480Z,73.51
2019-04-27T03:28:40.218Z,73.32
2019-04-27T03:29:39.106Z,73.61
2019-04-27T03:30:42.319Z,73.70
2019-04-27T03:31:42.413Z,73.89
2019-04-27T03:32:42.915Z,73.13
2019-04-27T03:33:42.751Z,73.13
2019-04-27T03:34:41.973Z,72.75
2019-04-27T03:35:43.131Z,73.22
2019-04-27T03:36:39.631Z,73.51
2019-04-27T03:37:40.442Z,73.32
2019-04-27T03:38:39.682Z,73.03
2019-04-27T03:39:39.678Z,73.22
2019-04-27T03:40:40.322Z,73.32
2019-04-27T03:41:40.989Z,72.94
2019-04-27T03:42:40.342Z,73.03
2019-04-27T03:43:40.214Z,73.41
2019-04-27T03:44:39.795Z,73.13
2019-04-27T03:45:39.925Z,73.51
2019-04-27T03:46:39.740Z,73.13
2019-04-27T03:47:40.771Z,73.51
2019-04-27T03:48:40.696Z,73.13
2019-04-27T03:49:41.608Z,73.03
2019-04-27T03:50:39.827Z,73.13
2019-04-27T03:51:40.271Z,72.94
2019-04-27T03:52:39.707Z,73.03
2019-04-27T03:53:39.610Z,73.13
2019-04-27T03:54:40.087Z,72.85
2019-04-27T03:55:39.861Z,72.94
2019-04-27T03:56:39.564Z,73.03
2019-04-27T03:57:40.259Z,72.46
2019-04-27T03:58:39.686Z,72.75
2019-04-27T03:59:40.553Z,72.94
2019-04-27T04:00:39.859Z,73.03
2019-04-27T04:01:39.596Z,73.03
2019-04-27T04:02:40.057Z,72.75
2019-04-27T04:03:39.282Z,72.94
2019-04-27T04:04:40.403Z,72.94
2019-04-27T04:05:39.785Z,72.75
2019-04-27T04:06:39.981Z,72.85
2019-04-27T04:07:39.812Z,72.75
2019-04-27T04:08:39.733Z,72.85
2019-04-27T04:09:39.971Z,72.65
2019-04-27T04:10:39.146Z,72.27
2019-04-27T04:11:39.517Z,72.56
2019-04-27T04:12:39.794Z,72.52
2019-04-27T04:13:39.691Z,72.75
2019-04-27T04:14:37.555Z,73.03
2019-04-27T04:15:39.717Z,72.85
2019-04-27T04:16:39.398Z,72.94
2019-04-27T04:17:37.463Z,72.85
2019-04-27T04:18:39.637Z,72.27
2019-04-27T04:19:48.906Z,72.17
2019-04-27T04:20:37.365Z,72.27
2019-04-27T04:21:39.749Z,72.17
2019-04-27T04:22:37.282Z,72.27
2019-04-27T04:23:37.246Z,72.65
2019-04-27T04:24:39.567Z,72.27
2019-04-27T04:25:37.178Z,72.37
2019-04-27T04:26:39.928Z,72.17
2019-04-27T04:27:37.111Z,72.08
2019-04-27T04:28:37.086Z,72.08
2019-04-27T04:29:39.324Z,71.70
2019-04-27T04:30:37.009Z,72.17
2019-04-27T04:31:36.980Z,72.56
2019-04-27T04:32:39.262Z,72.17
2019-04-27T04:33:36.906Z,72.27
2019-04-27T04:34:36.876Z,71.98
2019-04-27T04:35:39.535Z,72.37
2019-04-27T04:36:36.813Z,71.98
2019-04-27T04:37:39.301Z,71.98
2019-04-27T04:38:36.727Z,71.98
2019-04-27T04:39:36.697Z,71.70
2019-04-27T04:40:36.672Z,72.37
2019-04-27T04:41:36.625Z,71.51
2019-04-27T04:42:36.609Z,71.61
2019-04-27T04:43:36.572Z,71.51
2019-04-27T04:44:36.526Z,71.51
2019-04-27T04:45:36.497Z,71.32
2019-04-27T04:46:36.469Z,71.51
2019-04-27T04:47:36.430Z,71.13
2019-04-27T04:48:36.393Z,70.47
2019-04-27T04:49:36.363Z,70.47
2019-04-27T04:50:36.329Z,70.08
2019-04-27T04:51:36.285Z,69.89
2019-04-27T04:52:36.253Z,69.42
2019-04-27T04:53:36.229Z,69.32
2019-04-27T04:54:36.188Z,68.75
2019-04-27T04:55:36.158Z,69.32
2019-04-27T04:56:36.120Z,68.84
2019-04-27T04:57:36.087Z,68.84
2019-04-27T04:58:36.048Z,68.75
2019-04-27T04:59:36.013Z,68.65
2019-04-27T05:00:35.985Z,68.65
2019-04-27T05:01:35.949Z,67.61
2019-04-27T05:02:35.914Z,68.18
2019-04-27T05:03:35.874Z,67.99
2019-04-27T05:04:35.844Z,67.45
2019-04-27T05:05:35.812Z,66.75
2019-04-27T05:06:35.779Z,67.03
2019-04-27T05:07:35.740Z,66.69
2019-04-27T05:08:35.709Z,66.27
2019-04-27T05:09:35.679Z,66.11
2019-04-27T05:10:35.639Z,65.55
2019-04-27T05:11:35.604Z,64.87
2019-04-27T05:12:35.566Z,64.69
2019-04-27T05:13:35.538Z,64.97
2019-04-27T05:14:35.509Z,64.87
2019-04-27T05:15:35.465Z,64.12
2019-04-27T05:16:35.439Z,64.31
2019-04-27T05:17:35.397Z,64.02
2019-04-27T05:18:35.369Z,64.40
2019-04-27T05:19:35.340Z,63.73
2019-04-27T05:20:35.295Z,64.12
2019-04-27T05:21:35.265Z,64.02
2019-04-27T05:22:35.232Z,63.17
2019-04-27T05:23:35.199Z,63.07
2019-04-27T05:24:35.163Z,62.30
2019-04-27T05:25:35.127Z,62.49
2019-04-27T05:26:35.097Z,62.21
2019-04-27T05:27:35.060Z,62.30
2019-04-27T05:28:35.028Z,62.68
2019-04-27T05:29:34.993Z,62.30
2019-04-27T05:30:34.966Z,61.93
2019-04-27T05:31:34.923Z,62.30
2019-04-27T05:32:34.904Z,62.12
2019-04-27T05:33:34.855Z,62.59
2019-04-27T05:34:34.821Z,62.59
2019-04-27T05:35:34.791Z,62.59
2019-04-27T05:36:34.754Z,61.83
2019-04-27T05:37:34.723Z,61.25
2019-04-27T05:38:34.689Z,61.35
2019-04-27T05:39:34.660Z,61.83
2019-04-27T05:40:34.623Z,60.97
2019-04-27T05:41:37.529Z,61.54
2019-04-27T05:42:34.551Z,61.35
2019-04-27T05:43:34.521Z,61.35
2019-04-27T05:44:34.487Z,60.59
2019-04-27T05:45:34.456Z,61.54
2019-04-27T05:46:35.738Z,61.35
2019-04-27T05:47:34.389Z,61.45
2019-04-27T05:48:34.345Z,60.49
2019-04-27T05:49:36.274Z,61.07
2019-04-27T05:50:38.783Z,60.49
2019-04-27T05:51:37.291Z,60.88
2019-04-27T05:52:34.209Z,60.30
2019-04-27T05:53:34.180Z,60.49
2019-04-27T05:54:34.154Z,60.24
2019-04-27T05:55:34.114Z,59.74
2019-04-27T05:56:34.084Z,60.88
2019-04-27T05:57:34.049Z,60.59
2019-04-27T05:58:34.011Z,60.40
2019-04-27T05:59:33.980Z,60.11
2019-04-27T06:00:33.946Z,60.43
2019-04-27T06:01:33.907Z,60.33
2019-04-27T06:02:33.871Z,60.14
2019-04-27T06:03:33.854Z,60.81
2019-04-27T06:04:33.806Z,60.33
2019-04-27T06:05:33.784Z,60.52
2019-04-27T06:06:33.742Z,59.95
2019-04-27T06:07:33.706Z,59.76
2019-04-27T06:08:33.675Z,59.76
2019-04-27T06:09:33.640Z,59.67
2019-04-27T06:10:33.606Z,59.67
2019-04-27T06:11:33.575Z,59.76
2019-04-27T06:12:33.539Z,59.86
2019-04-27T06:13:33.521Z,59.67
2019-04-27T06:14:33.476Z,59.86
2019-04-27T06:15:33.460Z,60.05
2019-04-27T06:16:33.407Z,59.76
2019-04-27T06:17:33.378Z,60.24
2019-04-27T06:18:33.345Z,60.05
2019-04-27T06:19:33.305Z,60.52
2019-04-27T06:20:33.271Z,60.24
2019-04-27T06:21:33.241Z,60.14
2019-04-27T06:22:33.211Z,60.55
2019-04-27T06:23:33.173Z,60.43
2019-04-27T06:24:33.132Z,60.52
2019-04-27T06:25:33.107Z,60.27
2019-04-27T06:26:33.068Z,60.43
2019-04-27T06:27:33.043Z,60.46
2019-04-27T06:28:33.006Z,60.27
2019-04-27T06:29:32.977Z,60.36
2019-04-27T06:30:32.946Z,60.55
2019-04-27T06:31:32.912Z,60.65
2019-04-27T06:32:32.886Z,60.36
2019-04-27T06:33:34.450Z,60.46
2019-04-27T06:34:32.797Z,60.36
2019-04-27T06:35:32.791Z,60.17
2019-04-27T06:36:32.739Z,60.55
2019-04-27T06:37:32.712Z,60.17
2019-04-27T06:38:32.682Z,60.55
2019-04-27T06:39:32.638Z,60.84
2019-04-27T06:40:35.330Z,60.65
2019-04-27T06:41:32.573Z,60.17
2019-04-27T06:42:32.537Z,60.17
2019-04-27T06:43:32.507Z,60.36
2019-04-27T06:44:32.472Z,60.94
2019-04-27T06:45:32.437Z,60.36
2019-04-27T06:46:32.403Z,60.17
2019-04-27T06:47:32.369Z,60.55
2019-04-27T06:48:32.344Z,60.36
2019-04-27T06:49:32.312Z,60.27
2019-04-27T06:50:32.271Z,60.46
2019-04-27T06:51:32.251Z,61.51
2019-04-27T06:52:32.223Z,61.04
2019-04-27T06:53:32.170Z,60.75
2019-04-27T06:54:32.143Z,60.27
2019-04-27T06:55:32.104Z,60.27
2019-04-27T06:56:32.074Z,61.04
2019-04-27T06:57:32.054Z,60.55
2019-04-27T06:58:32.023Z,60.36
2019-04-27T06:59:31.974Z,60.46
2019-04-27T07:00:31.937Z,60.11
2019-04-27T07:01:31.910Z,61.51
2019-04-27T07:02:31.872Z,60.94
2019-04-27T07:03:31.838Z,60.11
2019-04-27T07:04:31.818Z,59.82
2019-04-27T07:05:31.783Z,59.82
2019-04-27T07:06:31.749Z,59.73
2019-04-27T07:07:31.710Z,59.06
2019-04-27T07:08:31.682Z,59.73
2019-04-27T07:09:31.652Z,59.82
2019-04-27T07:10:31.602Z,59.70
2019-04-27T07:11:31.582Z,58.87
2019-04-27T07:12:31.545Z,58.48
2019-04-27T07:13:31.518Z,58.87
2019-04-27T07:14:31.484Z,59.44
2019-04-27T07:15:31.438Z,58.97
2019-04-27T07:16:31.409Z,58.68
2019-04-27T07:17:31.380Z,58.39
2019-04-27T07:18:31.348Z,57.72
2019-04-27T07:19:31.318Z,58.48
2019-04-27T07:20:31.288Z,58.11
2019-04-27T07:21:31.255Z,57.53
2019-04-27T07:22:31.220Z,58.20
2019-04-27T07:23:31.195Z,58.68
2019-04-27T07:24:31.147Z,58.48
2019-04-27T07:25:31.119Z,58.68
2019-04-27T07:26:31.080Z,60.02
2019-04-27T07:27:31.048Z,59.16
2019-04-27T07:28:31.017Z,59.25
2019-04-27T07:29:30.990Z,60.49
2019-04-27T07:30:30.955Z,59.82
2019-04-27T07:31:31.841Z,59.16
2019-04-27T07:32:30.901Z,58.97
2019-04-27T07:33:30.850Z,59.16
2019-04-27T07:34:30.824Z,60.02
2019-04-27T07:35:30.792Z,60.11
2019-04-27T07:36:30.752Z,60.39
2019-04-27T07:37:30.720Z,60.49
2019-04-27T07:38:30.695Z,59.63
2019-04-27T07:39:30.656Z,59.63
2019-04-27T07:40:30.621Z,60.49
2019-04-27T07:41:30.587Z,59.73
2019-04-27T07:42:32.240Z,60.21
2019-04-27T07:43:30.524Z,61.44
2019-04-27T07:44:30.491Z,61.16
2019-04-27T07:45:30.461Z,61.16
2019-04-27T07:46:31.780Z,62.30
2019-04-27T07:47:31.045Z,60.87
2019-04-27T07:48:30.372Z,61.35
2019-04-27T07:49:30.325Z,61.44
2019-04-27T07:50:30.296Z,61.44
2019-04-27T07:51:34.120Z,61.35
2019-04-27T07:52:30.231Z,62.02
2019-04-27T07:53:30.187Z,61.54
2019-04-27T07:54:30.165Z,61.92
2019-04-27T07:55:30.136Z,60.97
2019-04-27T07:56:30.097Z,60.97
2019-04-27T07:57:30.062Z,61.54
2019-04-27T07:58:30.037Z,62.40
2019-04-27T07:59:30.002Z,62.59
2019-04-27T08:00:29.970Z,61.54
2019-04-27T08:01:29.940Z,61.63
2019-04-27T08:02:29.905Z,62.49
2019-04-27T08:03:29.872Z,61.44
2019-04-27T08:04:29.842Z,62.02
2019-04-27T08:05:29.803Z,62.40
2019-04-27T08:06:29.777Z,61.92
2019-04-27T08:07:29.748Z,61.63
2019-04-27T08:08:29.712Z,61.92
2019-04-27T08:09:29.663Z,61.95
2019-04-27T08:10:29.640Z,62.02
2019-04-27T08:11:29.606Z,62.49
2019-04-27T08:12:29.570Z,62.02
2019-04-27T08:13:29.557Z,61.38
2019-04-27T08:14:29.511Z,62.24
2019-04-27T08:15:29.472Z,62.34
2019-04-27T08:16:29.451Z,62.34
2019-04-27T08:17:30.222Z,61.86
2019-04-27T08:18:29.869Z,62.15
2019-04-27T08:19:29.512Z,61.57
2019-04-27T08:20:29.520Z,61.47
2019-04-27T08:21:29.283Z,60.90
2019-04-27T08:22:29.248Z,61.10
2019-04-27T08:23:29.512Z,60.42
2019-04-27T08:24:29.523Z,62.05
2019-04-27T08:25:30.827Z,61.76
2019-04-27T08:26:29.130Z,62.15
2019-04-27T08:27:29.521Z,62.52
2019-04-27T08:28:29.053Z,62.52
2019-04-27T08:29:29.946Z,62.71
2019-04-27T08:30:29.464Z,62.52
2019-04-27T08:31:28.951Z,62.52
2019-04-27T08:32:29.335Z,64.91
2019-04-27T08:33:29.017Z,66.35
2019-04-27T08:34:29.581Z,64.15
2019-04-27T08:35:31.045Z,63.67
2019-04-27T08:36:28.946Z,63.10
2019-04-27T08:37:28.754Z,67.77
2019-04-27T08:38:29.023Z,65.48
2019-04-27T08:39:29.644Z,64.81
2019-04-27T08:40:29.290Z,65.04
2019-04-27T08:41:29.572Z,68.16
2019-04-27T08:42:29.385Z,65.52
2019-04-27T08:43:29.066Z,64.18
2019-04-27T08:44:29.182Z,67.24
2019-04-27T08:45:29.261Z,62.55
2019-04-27T08:46:28.722Z,63.86
2019-04-27T08:47:29.344Z,62.55
2019-04-27T08:48:34.623Z,63.96
2019-04-27T08:49:29.269Z,62.05
2019-04-27T08:50:28.694Z,61.47
2019-04-27T08:51:29.096Z,60.04
2019-04-27T08:52:29.018Z,67.58
2019-04-27T08:53:29.826Z,62.05
2019-04-27T08:54:29.414Z,61.10
2019-04-27T08:55:29.430Z,59.47
2019-04-27T08:56:28.141Z,61.38
2019-04-27T08:57:29.025Z,61.29
2019-04-27T08:58:28.655Z,60.04
2019-04-27T08:59:29.624Z,63.10
2019-04-27T09:00:29.129Z,62.71
2019-04-27T09:01:29.827Z,63.86
2019-04-27T09:02:39.805Z,65.77
2019-04-27T09:03:29.455Z,63.20
2019-04-27T09:04:28.810Z,63.86
2019-04-27T09:05:28.965Z,65.67
2019-04-27T09:06:28.901Z,62.62
2019-04-27T09:07:29.452Z,65.96
2019-04-27T09:08:29.108Z,65.01
2019-04-27T09:09:29.454Z,62.15
2019-04-27T09:10:28.895Z,65.20
2019-04-27T09:11:29.015Z,65.87
2019-04-27T09:12:29.301Z,64.34
2019-04-27T09:13:29.222Z,62.05
2019-04-27T09:14:29.371Z,63.76
2019-04-27T09:15:29.189Z,68.70
2019-04-27T09:16:28.876Z,66.24
2019-04-27T09:17:27.457Z,64.02
2019-04-27T09:18:28.995Z,61.04
2019-04-27T09:19:29.071Z,60.66
2019-04-27T09:20:28.667Z,57.70
2019-04-27T09:21:29.261Z,59.10
2019-04-27T09:22:28.828Z,56.92
2019-04-27T09:23:28.592Z,58.25
2019-04-27T09:24:29.063Z,56.44
2019-04-27T09:25:27.227Z,57.67
2019-04-27T09:26:28.736Z,57.39
2019-04-27T09:27:28.908Z,55.96
2019-04-27T09:28:27.101Z,57.77
2019-04-27T09:29:27.066Z,59.39
2019-04-27T09:30:27.031Z,58.53
2019-04-27T09:31:28.763Z,57.01
2019-04-27T09:32:28.846Z,56.92
2019-04-27T09:33:26.931Z,56.03
2019-04-27T09:34:26.892Z,55.29
2019-04-27T09:35:26.871Z,55.68
2019-04-27T09:36:26.844Z,56.41
2019-04-27T09:37:27.418Z,55.68
2019-04-27T09:38:29.642Z,54.91
2019-04-27T09:39:26.718Z,57.77
2019-04-27T09:40:26.871Z,57.29
2019-04-27T09:41:26.699Z,56.92
2019-04-27T09:42:26.883Z,56.82
2019-04-27T09:43:26.578Z,56.05
2019-04-27T09:44:26.775Z,58.62
2019-04-27T09:45:27.043Z,57.20
2019-04-27T09:46:26.477Z,56.15
2019-04-27T09:47:26.735Z,59.67
2019-04-27T09:48:26.407Z,58.25
2019-04-27T09:49:26.451Z,60.63
2019-04-27T09:50:28.257Z,58.53
2019-04-27T09:51:26.317Z,59.20
2019-04-27T09:52:28.256Z,56.75
2019-04-27T09:53:27.031Z,58.94
2019-04-27T09:54:27.204Z,60.27
2019-04-27T09:55:26.438Z,59.23
2019-04-27T09:56:26.203Z,60.18
2019-04-27T09:57:26.099Z,65.13
2019-04-27T09:58:26.085Z,61.04
2019-04-27T09:59:26.588Z,62.37
2019-04-27T10:00:27.608Z,59.61
2019-04-27T10:01:26.468Z,61.13
2019-04-27T10:02:27.002Z,61.99
2019-04-27T10:03:26.636Z,68.84
2019-04-27T10:04:26.373Z,67.22
2019-04-27T10:05:26.319Z,66.37
2019-04-27T10:06:29.769Z,63.23
2019-04-27T10:07:26.802Z,68.18
2019-04-27T10:08:26.189Z,65.80
2019-04-27T10:09:26.370Z,66.37
2019-04-27T10:10:26.735Z,64.28
2019-04-27T10:11:26.495Z,66.18
2019-04-27T10:12:26.074Z,67.22
2019-04-27T10:13:25.663Z,64.21
2019-04-27T10:14:26.495Z,65.36
2019-04-27T10:15:26.639Z,68.84
2019-04-27T10:16:25.727Z,61.83
2019-04-27T10:17:25.425Z,62.21
2019-04-27T10:18:26.578Z,67.07
2019-04-27T10:19:30.624Z,68.88
2019-04-27T10:20:25.341Z,67.93
2019-04-27T10:21:26.414Z,66.78
2019-04-27T10:22:39.939Z,67.93
2019-04-27T10:23:25.228Z,68.21
2019-04-27T10:24:25.748Z,65.83
2019-04-27T10:25:25.146Z,65.45
2019-04-27T10:26:25.901Z,72.97
2019-04-27T10:27:25.920Z,68.98
2019-04-27T10:28:25.054Z,68.02
2019-04-27T10:29:26.731Z,66.11
2019-04-27T10:30:25.764Z,64.31
2019-04-27T10:31:24.947Z,64.40
2019-04-27T10:32:26.096Z,69.74
2019-04-27T10:33:25.763Z,70.97
2019-04-27T10:34:24.851Z,70.97
2019-04-27T10:35:26.048Z,69.26
2019-04-27T10:36:26.824Z,68.21
2019-04-27T10:37:24.743Z,68.69
2019-04-27T10:38:25.935Z,68.30
2019-04-27T10:39:27.413Z,67.45
2019-04-27T10:40:26.398Z,67.45
2019-04-27T10:41:25.944Z,67.16
2019-04-27T10:42:25.349Z,67.45
2019-04-27T10:43:25.842Z,65.64
2019-04-27T10:44:24.515Z,66.21
2019-04-27T10:45:24.479Z,65.16
2019-04-27T10:46:25.827Z,67.26
2019-04-27T10:47:26.014Z,67.07
2019-04-27T10:48:26.300Z,65.16
2019-04-27T10:49:24.336Z,64.87
2019-04-27T10:50:26.356Z,65.07
2019-04-27T10:51:26.076Z,69.07
2019-04-27T10:52:24.247Z,68.69
2019-04-27T10:53:24.261Z,69.45
2019-04-27T10:54:24.171Z,66.21
2019-04-27T10:55:24.138Z,68.30
2019-04-27T10:56:25.519Z,64.31
2019-04-27T10:57:25.677Z,68.40
2019-04-27T10:58:25.419Z,68.50
2019-04-27T10:59:24.011Z,67.16
2019-04-27T11:00:25.561Z,68.59
2019-04-27T11:01:25.675Z,67.74
2019-04-27T11:02:23.901Z,68.12
2019-04-27T11:03:25.537Z,71.73
2019-04-27T11:04:23.837Z,71.17
2019-04-27T11:05:23.809Z,69.93
2019-04-27T11:06:23.773Z,67.64
2019-04-27T11:07:23.733Z,69.83
2019-04-27T11:08:23.698Z,72.60
2019-04-27T11:09:25.613Z,70.12
2019-04-27T11:10:23.649Z,66.24
2019-04-27T11:11:23.608Z,69.64
2019-04-27T11:12:23.564Z,66.63
2019-04-27T11:13:23.539Z,74.12
2019-04-27T11:14:23.498Z,71.73
2019-04-27T11:15:23.473Z,69.45
2019-04-27T11:16:23.433Z,71.83
2019-04-27T11:17:23.399Z,71.55
2019-04-27T11:18:23.366Z,68.34
2019-04-27T11:19:23.331Z,67.93
2019-04-27T11:20:23.303Z,68.91
2019-04-27T11:21:23.264Z,70.92
2019-04-27T11:22:23.233Z,71.01
2019-04-27T11:23:23.200Z,72.63
2019-04-27T11:24:23.173Z,70.63
2019-04-27T11:25:23.125Z,73.01
2019-04-27T11:26:23.100Z,68.91
2019-04-27T11:27:23.069Z,72.44
2019-04-27T11:28:23.029Z,71.20
2019-04-27T11:29:23.001Z,71.87
2019-04-27T11:30:22.963Z,72.25
2019-04-27T11:31:22.928Z,71.20
2019-04-27T11:32:22.891Z,71.30
2019-04-27T11:33:22.879Z,73.68
2019-04-27T11:34:22.828Z,75.40
2019-04-27T11:35:22.794Z,71.39
2019-04-27T11:36:22.763Z,71.68
2019-04-27T11:37:22.724Z,71.30
2019-04-27T11:38:22.709Z,72.63
2019-04-27T11:39:22.665Z,72.53
2019-04-27T11:40:22.619Z,72.82
2019-04-27T11:41:22.596Z,72.44
2019-04-27T11:42:22.571Z,72.53
2019-04-27T11:43:22.525Z,75.05
2019-04-27T11:44:22.505Z,72.72
2019-04-27T11:45:22.467Z,70.63
2019-04-27T11:46:22.441Z,72.25
2019-04-27T11:47:22.397Z,67.96
2019-04-27T11:48:22.361Z,69.01
2019-04-27T11:49:22.324Z,70.15
2019-04-27T11:50:22.291Z,71.11
2019-04-27T11:51:22.260Z,72.16
2019-04-27T11:52:22.241Z,70.88
2019-04-27T11:53:23.164Z,68.44
2019-04-27T11:54:22.161Z,69.87
2019-04-27T11:55:22.124Z,71.68
2019-04-27T11:56:22.086Z,76.16
2019-04-27T11:57:22.060Z,73.58
2019-04-27T11:58:22.014Z,71.87
2019-04-27T11:59:21.986Z,73.96
2019-04-27T12:00:21.967Z,72.92
2019-04-27T12:01:21.935Z,72.53
2019-04-27T12:02:21.891Z,74.73
2019-04-27T12:03:21.857Z,76.06
2019-04-27T12:04:21.832Z,74.63
2019-04-27T12:05:21.785Z,75.01
2019-04-27T12:06:21.756Z,76.73
2019-04-27T12:07:21.718Z,75.49
2019-04-27T12:08:21.688Z,76.57
2019-04-27T12:09:21.668Z,74.57
2019-04-27T12:10:21.626Z,73.33
2019-04-27T12:11:21.600Z,75.59
2019-04-27T12:12:22.008Z,77.01
2019-04-27T12:13:21.526Z,75.49
2019-04-27T12:14:21.499Z,76.16
2019-04-27T12:15:21.467Z,75.49
2019-04-27T12:16:21.432Z,75.30
2019-04-27T12:17:21.395Z,77.78
2019-04-27T12:18:21.361Z,75.68
2019-04-27T12:19:21.332Z,74.16
2019-04-27T12:20:21.294Z,75.30
2019-04-27T12:21:21.260Z,77.97
2019-04-27T12:22:21.232Z,73.87
2019-04-27T12:23:32.993Z,75.01
2019-04-27T12:24:21.177Z,76.06
2019-04-27T12:25:21.133Z,75.20
2019-04-27T12:26:21.099Z,77.20
2019-04-27T12:27:21.068Z,77.01
2019-04-27T12:28:21.042Z,77.69
2019-04-27T12:29:20.997Z,77.59
2019-04-27T12:30:20.967Z,75.81
2019-04-27T12:31:20.932Z,74.86
2019-04-27T12:32:20.893Z,76.67
2019-04-27T12:33:20.863Z,77.09
2019-04-27T12:34:20.833Z,73.56
2019-04-27T12:35:20.797Z,78.18
2019-04-27T12:36:20.771Z,81.04
2019-04-27T12:37:20.733Z,74.84
2019-04-27T12:38:21.358Z,77.36
2019-04-27T12:39:20.682Z,78.13
2019-04-27T12:40:20.644Z,75.13
2019-04-27T12:41:20.601Z,74.93
2019-04-27T12:42:21.147Z,77.13
2019-04-27T12:43:20.563Z,75.74
2019-04-27T12:44:20.504Z,74.30
2019-04-27T12:45:20.498Z,71.92
2019-04-27T12:46:20.443Z,76.12
2019-04-27T12:47:20.434Z,74.24
2019-04-27T12:48:20.398Z,74.82
2019-04-27T12:49:20.349Z,75.10
2019-04-27T12:50:20.329Z,74.76
2019-04-27T12:51:21.061Z,70.07
2019-04-27T12:52:20.258Z,71.99
2019-04-27T12:53:20.222Z,69.70